Time;durP1;ratioP1;P1;durP2;ratioP2;P2;SDS_P1;SDS_P2;PMS_P1;PMS_P2;Temp;Humidity;BMP_temperature;BMP_pressure;BME280_temperature;BME280_humidity;BME280_pressure;Samples;Min_cycle;Max_cycle;Signal;HPM_P1;HPM_P2
2022/05/14 00:00:08;;;;;;;6.95;5.38;;;;;;;9.75;99.10;101304.88;684414;28;2711;-79
2022/05/14 00:00:29;;;;;;;6.90;5.45;;;;;;;9.75;98.72;101303.16;684673;28;1597;-79
2022/05/14 00:00:49;;;;;;;8.83;5.87;;;;;;;9.76;98.74;101304.94;684588;28;1529;-79
2022/05/14 00:01:10;;;;;;;8.10;5.72;;;;;;;9.77;98.77;101304.03;685241;28;1604;-79
2022/05/14 00:01:31;;;;;;;9.53;5.63;;;;;;;9.75;99.20;101303.16;684241;28;4254;-79
2022/05/14 00:01:52;;;;;;;8.05;5.90;;;;;;;9.75;99.84;101303.16;681208;29;1552;-79
2022/05/14 00:02:12;;;;;;;7.22;5.72;;;;;;;9.76;99.85;101307.53;678853;29;1586;-79
2022/05/14 00:02:33;;;;;;;8.20;5.73;;;;;;;9.75;100.00;101303.16;678967;29;1341;-79
2022/05/14 00:02:55;;;;;;;8.13;5.93;;;;;;;9.79;99.71;101302.34;680891;29;1263;-79
2022/05/14 00:03:17;;;;;;;7.65;5.68;;;;;;;9.87;98.29;101303.28;682252;29;2050;-79
2022/05/14 00:03:38;;;;;;;7.47;5.57;;;;;;;9.88;98.17;101305.03;678922;29;1648;-79
2022/05/14 00:03:58;;;;;;;7.32;5.43;;;;;;;9.90;97.89;101302.44;678260;29;1339;-79
2022/05/14 00:04:19;;;;;;;7.70;5.43;;;;;;;9.87;98.74;101307.59;677311;29;1434;-79
2022/05/14 00:04:39;;;;;;;7.90;5.88;;;;;;;9.85;97.92;101318.03;678253;29;4330;-79
2022/05/14 00:05:00;;;;;;;9.63;5.90;;;;;;;9.82;98.96;101309.31;682743;28;1521;-79
2022/05/14 00:05:22;;;;;;;8.67;5.70;;;;;;;9.83;97.44;101300.59;684765;28;1553;-79
2022/05/14 00:05:43;;;;;;;7.47;5.60;;;;;;;9.84;97.95;101302.38;686012;28;1432;-79
2022/05/14 00:06:06;;;;;;;8.32;5.60;;;;;;;9.82;98.72;101310.19;684186;28;1855;-79
2022/05/14 00:06:30;;;;;;;8.25;5.80;;;;;;;9.79;99.45;101297.13;684687;28;1414;-79
2022/05/14 00:06:51;;;;;;;7.95;5.55;;;;;;;9.76;99.37;101301.41;681110;28;1743;-80
2022/05/14 00:07:11;;;;;;;9.35;6.22;;;;;;;9.71;99.36;101309.22;681012;28;1359;-80
2022/05/14 00:07:32;;;;;;;8.45;5.85;;;;;;;9.71;98.71;101304.00;680705;28;4321;-79
2022/05/14 00:07:53;;;;;;;8.00;5.77;;;;;;;9.75;98.40;101303.16;682274;28;1617;-79
2022/05/14 00:08:15;;;;;;;7.68;5.50;;;;;;;9.77;98.76;101322.31;685030;28;1896;-79
2022/05/14 00:08:37;;;;;;;8.43;5.55;;;;;;;9.69;99.74;101297.88;684279;28;1482;-79
2022/05/14 00:09:05;;;;;;;8.85;6.00;;;;;;;9.66;100.00;101303.06;682003;28;1642;-79
2022/05/14 00:09:25;;;;;;;8.23;5.80;;;;;;;9.67;100.00;101304.84;682235;28;1517;-79
2022/05/14 00:09:45;;;;;;;7.15;5.65;;;;;;;9.68;100.00;101317.03;684256;28;1680;-79
2022/05/14 00:10:07;;;;;;;8.57;5.90;;;;;;;9.70;99.62;101300.50;684149;28;1795;-79
2022/05/14 00:10:31;;;;;;;10.30;6.05;;;;;;;9.73;99.79;101298.78;681417;28;4374;-79
2022/05/14 00:13:06;;;;;;;8.20;6.07;;;;;;;9.71;99.78;101302.25;688902;28;1902;-79
2022/05/14 00:13:26;;;;;;;8.48;6.10;;;;;;;9.71;99.29;101302.25;688132;28;4413;-79
2022/05/14 00:13:47;;;;;;;9.57;5.78;;;;;;;9.73;98.94;101310.09;687209;28;1573;-79
2022/05/14 00:14:08;;;;;;;9.27;6.03;;;;;;;9.67;100.00;101299.63;686883;28;1452;-79
2022/05/14 00:14:29;;;;;;;9.35;6.53;;;;;;;9.63;99.01;101308.28;686884;28;1615;-79
2022/05/14 00:14:49;;;;;;;8.65;6.20;;;;;;;9.65;98.95;101316.97;684642;28;1204;-79
2022/05/14 00:15:13;;;;;;;9.77;6.07;;;;;;;9.64;99.31;101325.69;684840;28;1408;-79
2022/05/14 00:15:37;;;;;;;8.13;6.00;;;;;;;9.63;100.00;101303.91;683363;28;1325;-79
2022/05/14 00:15:58;;;;;;;8.35;6.35;;;;;;;9.64;100.00;101300.44;681401;28;1275;-79
2022/05/14 00:16:23;;;;;;;9.05;6.47;;;;;;;9.64;99.54;101295.22;681980;28;1843;-79
2022/05/14 00:16:47;;;;;;;9.13;6.68;;;;;;;9.69;99.26;101303.09;683516;28;4891;-79
2022/05/14 00:17:07;;;;;;;9.57;6.32;;;;;;;9.75;98.73;101338.84;681332;29;1696;-79
2022/05/14 00:17:32;;;;;;;8.50;6.03;;;;;;;9.74;99.87;101303.16;681622;29;1292;-79
2022/05/14 00:17:54;;;;;;;10.43;6.53;;;;;;;9.71;100.00;101310.09;682233;28;1293;-79
2022/05/14 00:18:15;;;;;;;10.10;6.47;;;;;;;9.73;99.13;101307.47;684472;28;1524;-79
2022/05/14 00:18:36;;;;;;;8.70;6.10;;;;;;;9.77;98.55;101300.56;682174;28;1152;-79
2022/05/14 00:19:01;;;;;;;8.60;6.45;;;;;;;9.77;98.59;101295.34;681274;29;1541;-79
2022/05/14 00:19:22;;;;;;;8.43;6.15;;;;;;;9.79;98.57;101315.38;680824;28;4286;-79
2022/05/14 00:19:42;;;;;;;9.13;6.13;;;;;;;9.76;98.78;101304.94;682530;28;1292;-80
2022/05/14 00:20:03;;;;;;;9.70;6.28;;;;;;;9.71;100.00;101297.03;682449;28;4057;-79
2022/05/14 00:20:24;;;;;;;9.02;6.28;;;;;;;9.72;100.00;101310.97;683726;28;1197;-79
2022/05/14 00:20:45;;;;;;;9.80;6.50;;;;;;;9.72;100.00;101303.16;684230;28;2018;-79
2022/05/14 00:21:06;;;;;;;9.23;6.68;;;;;;;9.73;99.15;101304.88;685834;28;1261;-79
2022/05/14 00:21:27;;;;;;;8.60;6.10;;;;;;;9.76;98.71;101317.09;682991;28;1239;-79
2022/05/14 00:21:47;;;;;;;8.80;6.13;;;;;;;9.79;98.94;101301.44;681454;28;1161;-80
2022/05/14 00:22:08;;;;;;;8.80;6.20;;;;;;;9.80;98.10;101304.09;680480;29;984;-79
2022/05/14 00:22:29;;;;;;;8.32;5.70;;;;;;;9.84;98.29;101302.38;680673;28;4465;-79
2022/05/14 00:22:52;;;;;;;9.65;5.80;;;;;;;9.85;97.61;101314.56;680739;28;1198;-79
2022/05/14 00:23:14;;;;;;;9.63;6.00;;;;;;;9.83;97.49;101317.16;681854;28;1445;-79
2022/05/14 00:23:38;;;;;;;7.75;5.63;;;;;;;9.83;97.91;101306.72;683182;28;1282;-79
2022/05/14 00:23:58;;;;;;;8.05;5.85;;;;;;;9.78;98.74;101304.94;683491;28;1302;-79
2022/05/14 00:24:19;;;;;;;8.40;5.72;;;;;;;9.74;99.91;101301.41;683598;28;1780;-79
2022/05/14 00:24:39;;;;;;;8.00;5.93;;;;;;;9.73;99.94;101307.47;682606;28;1474;-80
2022/05/14 00:25:00;;;;;;;8.07;5.95;;;;;;;9.71;100.00;101301.41;684512;28;1230;-79
2022/05/14 00:25:21;;;;;;;8.98;6.00;;;;;;;9.72;99.18;101318.81;679792;29;4330;-79
2022/05/14 00:25:42;;;;;;;9.30;6.35;;;;;;;9.73;99.15;101294.44;679948;29;1728;-79
2022/05/14 00:26:03;;;;;;;7.97;6.00;;;;;;;9.75;99.28;101295.34;678098;29;1399;-80
2022/05/14 00:26:24;;;;;;;8.75;5.78;;;;;;;9.76;98.46;101306.66;677402;29;1324;-79
2022/05/14 00:26:47;;;;;;;8.98;6.32;;;;;;;9.79;98.45;101299.72;678117;29;1735;-79
2022/05/14 00:27:10;;;;;;;9.90;6.15;;;;;;;9.79;97.53;101301.44;677292;29;974;-79
2022/05/14 00:27:33;;;;;;;8.82;5.75;;;;;;;9.71;99.25;101311.84;676941;29;1380;-79
2022/05/14 00:27:54;;;;;;;9.40;6.28;;;;;;;9.68;99.76;101296.16;676031;29;1473;-79
2022/05/14 00:28:15;;;;;;;8.48;6.03;;;;;;;9.66;100.00;101295.25;682140;29;1824;-80
2022/05/14 00:28:35;;;;;;;8.35;6.07;;;;;;;9.57;100.00;101327.38;680890;28;5208;-79
2022/05/14 00:28:56;;;;;;;7.60;6.00;;;;;;;9.57;99.58;101301.25;679372;29;1366;-79
2022/05/14 00:29:17;;;;;;;7.82;5.70;;;;;;;9.61;99.75;101320.41;679024;29;1593;-79
2022/05/14 00:29:37;;;;;;;8.20;5.95;;;;;;;9.62;100.00;101296.06;683621;28;1618;-79
2022/05/14 00:29:58;;;;;;;8.98;5.88;;;;;;;9.62;99.06;101306.53;681145;29;1395;-79
2022/05/14 00:30:23;;;;;;;7.90;5.80;;;;;;;9.60;99.83;101313.47;684122;28;1261;-79
2022/05/14 00:30:43;;;;;;;7.47;5.78;;;;;;;9.54;100.00;101330.81;686960;28;1325;-79
2022/05/14 00:31:06;;;;;;;8.82;5.97;;;;;;;9.52;100.00;101302.94;684602;28;881;-79
2022/05/14 00:31:27;;;;;;;8.88;6.03;;;;;;;9.50;100.00;101302.06;680718;28;4356;-79
2022/05/14 00:31:48;;;;;;;7.65;5.85;;;;;;;9.49;100.00;101316.84;681555;28;1462;-79
2022/05/14 00:32:08;;;;;;;9.30;6.07;;;;;;;9.51;100.00;101325.56;680356;29;1054;-79
2022/05/14 00:32:29;;;;;;;8.20;6.10;;;;;;;9.58;99.90;101309.97;679541;29;1454;-79
2022/05/14 00:32:53;;;;;;;7.88;6.05;;;;;;;9.54;100.00;101309.06;682652;28;1969;-79
2022/05/14 00:33:13;;;;;;;8.75;6.13;;;;;;;9.53;100.00;101331.66;684290;28;1348;-80
2022/05/14 00:33:34;;;;;;;9.05;6.45;;;;;;;9.53;100.00;101296.88;684081;28;1319;-79
2022/05/14 00:33:55;;;;;;;9.87;6.10;;;;;;;9.55;100.00;101321.25;681135;28;1650;-79
2022/05/14 00:34:16;;;;;;;10.00;6.30;;;;;;;9.49;100.00;101336.84;681146;28;1536;-79
2022/05/14 00:34:36;;;;;;;8.52;6.38;;;;;;;9.46;100.00;101313.34;680379;28;4283;-79
2022/05/14 00:34:57;;;;;;;8.43;5.80;;;;;;;9.50;100.00;101322.94;681944;28;1385;-79
2022/05/14 00:35:19;;;;;;;7.85;5.80;;;;;;;9.50;100.00;101302.94;680818;29;1473;-79
2022/05/14 00:35:40;;;;;;;6.95;5.50;;;;;;;9.50;100.00;101315.97;679391;29;1635;-79
2022/05/14 00:36:01;;;;;;;8.02;5.60;;;;;;;9.49;100.00;101315.97;678609;29;1385;-79
2022/05/14 00:36:21;;;;;;;7.68;5.40;;;;;;;9.54;100.00;101309.94;680996;28;1384;-79
2022/05/14 00:36:43;;;;;;;8.93;5.80;;;;;;;9.53;100.00;101321.22;683006;28;1673;-79
2022/05/14 00:37:04;;;;;;;9.25;5.55;;;;;;;9.58;100.00;101297.81;686310;28;1489;-79
2022/05/14 00:37:28;;;;;;;8.38;5.72;;;;;;;9.57;100.00;101313.41;683576;28;4315;-79
2022/05/14 00:37:49;;;;;;;8.60;5.90;;;;;;;9.54;100.00;101332.56;684287;28;1665;-79
2022/05/14 00:38:10;;;;;;;8.65;6.20;;;;;;;9.54;100.00;101312.53;684137;28;1555;-79
2022/05/14 00:38:32;;;;;;;8.65;6.20;;;;;;;9.53;100.00;101304.69;682611;28;2427;-79
2022/05/14 00:38:54;;;;;;;8.32;6.03;;;;;;;9.58;100.00;101320.41;686343;28;1327;-79
2022/05/14 00:39:17;;;;;;;7.47;5.72;;;;;;;9.60;100.00;101303.03;683857;28;1480;-79
2022/05/14 00:39:38;;;;;;;7.53;5.50;;;;;;;9.58;100.00;101320.41;682167;28;916;-79
2022/05/14 00:39:59;;;;;;;8.35;5.70;;;;;;;9.60;100.00;101324.78;678877;29;1579;-79
2022/05/14 00:40:26;;;;;;;9.20;5.70;;;;;;;9.63;99.65;101323.94;679770;28;4297;-79
2022/05/14 00:40:55;;;;;;;8.02;5.55;;;;;;;9.59;100.00;101294.31;680263;29;1039;-79
2022/05/14 00:41:16;;;;;;;8.48;6.30;;;;;;;9.61;100.00;101323.03;683499;28;846;-79
2022/05/14 00:41:38;;;;;;;8.57;6.38;;;;;;;9.58;100.00;101309.97;683567;28;1370;-79
2022/05/14 00:41:59;;;;;;;8.48;6.10;;;;;;;9.56;100.00;101314.31;682532;28;1365;-79
2022/05/14 00:42:19;;;;;;;7.38;5.80;;;;;;;9.51;100.00;101322.97;680334;29;4546;-80
2022/05/14 00:42:43;;;;;;;7.75;5.70;;;;;;;9.53;100.00;101312.53;682850;28;1696;-79
2022/05/14 00:43:05;;;;;;;9.52;6.28;;;;;;;9.53;100.00;101297.75;683593;28;1614;-79
2022/05/14 00:43:26;;;;;;;8.07;6.10;;;;;;;9.55;100.00;101300.34;683359;28;4361;-79
2022/05/14 00:43:55;;;;;;;8.25;5.72;;;;;;;9.50;100.00;101312.50;683588;28;2095;-80
2022/05/14 00:44:19;;;;;;;10.10;5.90;;;;;;;9.44;100.00;101321.16;680149;29;1422;-79
2022/05/14 00:44:39;;;;;;;8.45;5.82;;;;;;;9.42;100.00;101299.38;678375;29;906;-79
2022/05/14 00:45:03;;;;;;;8.73;6.18;;;;;;;9.42;100.00;101307.19;678643;29;1253;-79
2022/05/14 00:45:23;;;;;;;8.90;6.30;;;;;;;9.42;100.00;101306.34;681239;28;1346;-79
2022/05/14 00:45:50;;;;;;;9.73;6.03;;;;;;;9.39;100.00;101309.78;681083;28;1280;-80
2022/05/14 00:46:16;;;;;;;8.32;5.82;;;;;;;9.46;100.00;101300.28;684708;28;1232;-79
2022/05/14 00:46:41;;;;;;;9.70;5.70;;;;;;;9.48;100.00;101303.78;681920;28;4231;-79
2022/05/14 00:47:09;;;;;;;7.05;5.60;;;;;;;9.49;100.00;101305.53;680691;29;1407;-79
2022/05/14 00:47:35;;;;;;;9.02;6.10;;;;;;;9.39;100.00;101309.78;682046;28;1076;-79
2022/05/14 00:47:59;;;;;;;9.30;6.05;;;;;;;9.37;100.00;101296.72;683503;28;1321;-79
2022/05/14 00:48:20;;;;;;;8.85;5.75;;;;;;;9.41;100.00;101320.25;683778;28;1394;-80
2022/05/14 00:48:43;;;;;;;8.07;5.78;;;;;;;9.43;100.00;101323.72;680765;29;1281;-79
2022/05/14 00:49:03;;;;;;;7.55;5.82;;;;;;;9.43;100.00;101311.56;683376;28;1238;-79
2022/05/14 00:49:25;;;;;;;7.60;6.10;;;;;;;9.41;100.00;101296.75;674565;29;4315;-79
2022/05/14 00:49:47;;;;;;;8.30;5.93;;;;;;;9.36;100.00;101315.84;678607;29;1583;-79
2022/05/14 00:50:38;;;;;;;8.60;6.05;;;;;;;9.27;100.00;101299.22;678912;29;1801;-79
2022/05/14 00:50:59;;;;;;;9.30;5.82;;;;;;;9.27;100.00;101326.16;676474;29;1352;-79
2022/05/14 00:51:28;;;;;;;8.57;5.60;;;;;;;9.31;100.00;101301.88;680181;29;1157;-79
2022/05/14 00:51:51;;;;;;;8.68;5.55;;;;;;;9.38;100.00;101302.81;682838;28;1508;-79
2022/05/14 00:52:15;;;;;;;7.53;5.50;;;;;;;9.38;100.00;101303.66;678773;29;1216;-79
2022/05/14 00:52:36;;;;;;;7.40;5.43;;;;;;;9.44;100.00;101308.09;679230;29;4242;-79
2022/05/14 00:53:02;;;;;;;8.60;5.47;;;;;;;9.42;100.00;101307.19;683467;28;1977;-79
2022/05/14 00:53:40;;;;;;;8.15;6.10;;;;;;;9.36;100.00;101302.78;678951;29;1261;-79
2022/05/14 00:54:06;;;;;;;9.02;5.80;;;;;;;9.36;100.00;101325.41;685226;28;1441;-79
2022/05/14 00:55:00;;;;;;;9.43;6.22;;;;;;;9.32;100.00;101300.16;681824;28;1286;-79
2022/05/14 00:55:21;;;;;;;7.78;6.00;;;;;;;9.30;100.00;101304.47;679108;28;4240;-79
2022/05/14 00:55:44;;;;;;;7.90;6.22;;;;;;;9.30;100.00;101310.53;680265;29;1280;-79
2022/05/14 00:56:09;;;;;;;7.43;5.95;;;;;;;9.25;100.00;101314.84;683439;28;1691;-79
2022/05/14 00:56:36;;;;;;;7.60;5.90;;;;;;;9.21;100.00;101307.84;683938;28;1529;-79
2022/05/14 00:57:01;;;;;;;9.73;6.38;;;;;;;9.18;100.00;101302.63;683755;28;1327;-79
2022/05/14 00:57:27;;;;;;;8.50;5.88;;;;;;;9.20;100.00;101304.34;679822;29;1297;-79
2022/05/14 00:57:47;;;;;;;7.10;5.75;;;;;;;9.24;100.00;101302.66;677805;29;1373;-79
2022/05/14 00:58:14;;;;;;;7.80;5.75;;;;;;;9.25;100.00;101301.81;678407;29;1415;-79
2022/05/14 00:58:46;;;;;;;7.32;5.63;;;;;;;9.24;100.00;101299.19;678677;29;4235;-79
2022/05/14 00:59:22;;;;;;;8.02;5.85;;;;;;;9.29;100.00;101305.31;679919;29;1785;-79
2022/05/14 00:59:43;;;;;;;7.72;5.55;;;;;;;9.32;100.00;101298.41;683372;28;1204;-79
2022/05/14 01:00:16;;;;;;;7.57;5.70;;;;;;;9.30;100.00;101296.63;684179;28;1553;-79
2022/05/14 01:00:37;;;;;;;7.97;5.88;;;;;;;9.23;100.00;101300.03;686290;28;1426;-79
2022/05/14 01:00:58;;;;;;;9.55;6.00;;;;;;;9.23;100.00;101294.81;683258;28;1680;-79
2022/05/14 01:01:18;;;;;;;8.20;5.73;;;;;;;9.23;100.00;101303.50;683892;28;1524;-79
2022/05/14 01:01:39;;;;;;;9.00;5.90;;;;;;;9.26;100.00;101300.06;683128;28;4815;-79
2022/05/14 01:02:00;;;;;;;8.65;6.22;;;;;;;9.31;100.00;101301.88;680782;28;1521;-79
2022/05/14 01:02:21;;;;;;;7.72;6.00;;;;;;;9.31;100.00;101306.22;680698;29;1496;-79
2022/05/14 01:02:42;;;;;;;9.43;5.85;;;;;;;9.28;100.00;101306.19;679826;28;1427;-79
2022/05/14 01:03:03;;;;;;;9.68;6.40;;;;;;;9.26;100.00;101298.31;677070;28;1587;-79
2022/05/14 01:03:23;;;;;;;9.20;6.20;;;;;;;9.23;100.00;101298.28;680361;29;1160;-80
2022/05/14 01:03:44;;;;;;;10.18;6.53;;;;;;;9.24;100.00;101300.06;681283;28;1800;-79
2022/05/14 01:04:06;;;;;;;10.18;6.43;;;;;;;9.28;100.00;101300.97;683661;28;1612;-79
2022/05/14 01:04:29;;;;;;;8.73;6.10;;;;;;;9.28;100.00;101295.75;682806;28;4280;-79
2022/05/14 01:04:53;;;;;;;8.63;5.85;;;;;;;9.28;100.00;101298.38;683308;28;2052;-78
2022/05/14 01:05:14;;;;;;;7.68;6.20;;;;;;;9.28;100.00;101303.59;683780;28;1516;-79
2022/05/14 01:05:35;;;;;;;8.52;6.40;;;;;;;9.26;100.00;101295.72;683690;28;1451;-79
2022/05/14 01:05:59;;;;;;;9.60;6.55;;;;;;;9.15;100.00;101298.22;681293;29;1253;-79
2022/05/14 01:06:20;;;;;;;9.93;6.40;;;;;;;9.08;100.00;101296.38;677044;29;1103;-79
2022/05/14 01:07:05;;;;;;;9.77;6.70;;;;;;;9.09;100.00;101298.13;680549;29;1187;-79
2022/05/14 01:07:28;;;;;;;8.95;6.80;;;;;;;9.14;100.00;101299.09;675213;29;4353;-79
2022/05/14 01:07:51;;;;;;;8.98;6.75;;;;;;;9.18;100.00;101300.88;675879;29;1336;-79
2022/05/14 01:08:11;;;;;;;8.68;6.40;;;;;;;9.22;100.00;101293.06;681885;28;1258;-79
2022/05/14 01:08:33;;;;;;;7.18;5.82;;;;;;;9.23;100.00;101298.28;684365;28;1376;-79
2022/05/14 01:08:54;;;;;;;7.85;6.35;;;;;;;9.26;100.00;101300.06;681128;29;1385;-80
2022/05/14 01:09:15;;;;;;;8.30;6.10;;;;;;;9.26;100.00;101302.69;684728;28;1432;-79
2022/05/14 01:09:37;;;;;;;7.88;6.30;;;;;;;9.26;100.00;101300.06;681031;29;1516;-79
2022/05/14 01:10:05;;;;;;;9.75;6.55;;;;;;;9.20;100.00;101296.53;678273;29;1315;-79
2022/05/14 01:10:31;;;;;;;9.35;6.70;;;;;;;9.16;100.00;101296.47;678392;29;4313;-79
2022/05/14 01:10:56;;;;;;;8.00;6.43;;;;;;;9.14;100.00;101293.88;681329;28;928;-79
2022/05/14 01:11:17;;;;;;;8.40;6.60;;;;;;;9.19;100.00;101301.72;681226;29;1431;-79
2022/05/14 01:11:40;;;;;;;9.32;6.30;;;;;;;9.20;100.00;101291.31;680359;29;1284;-79
2022/05/14 01:12:03;;;;;;;9.52;6.50;;;;;;;9.25;100.00;101300.91;677038;29;1463;-79
2022/05/14 01:12:27;;;;;;;8.80;6.18;;;;;;;9.30;98.74;101294.03;681599;28;1562;-79
2022/05/14 01:12:55;;;;;;;9.20;6.20;;;;;;;9.23;100.00;101289.59;679697;29;1958;-79
2022/05/14 01:13:16;;;;;;;9.35;6.97;;;;;;;9.15;100.00;101310.38;680687;28;1443;-79
2022/05/14 01:13:37;;;;;;;9.45;6.65;;;;;;;9.14;100.00;101314.72;679425;29;4279;-79
2022/05/14 01:13:58;;;;;;;9.77;6.10;;;;;;;9.13;100.00;101315.59;679720;29;1604;-79
2022/05/14 01:14:21;;;;;;;10.18;6.15;;;;;;;9.17;100.00;101304.31;678823;29;1412;-78
2022/05/14 01:14:43;;;;;;;9.20;6.22;;;;;;;9.19;100.00;101312.16;681901;28;1478;-79
2022/05/14 01:15:19;;;;;;;10.40;6.20;;;;;;;9.23;99.98;101306.13;681627;28;1020;-79
2022/05/14 01:15:48;;;;;;;7.72;6.32;;;;;;;9.20;100.00;101299.13;680531;29;1415;-79
2022/05/14 01:16:10;;;;;;;9.43;6.32;;;;;;;9.13;100.00;101297.31;678077;29;3818;-80
2022/05/14 01:16:33;;;;;;;9.05;6.18;;;;;;;9.13;100.00;101314.72;676901;29;4291;-79
2022/05/14 01:16:53;;;;;;;8.23;5.97;;;;;;;9.16;100.00;101307.78;681357;28;1226;-79
2022/05/14 01:17:20;;;;;;;8.15;6.00;;;;;;;9.16;100.00;101307.78;683940;28;1532;-79
2022/05/14 01:17:48;;;;;;;9.00;6.40;;;;;;;9.15;100.00;101318.19;681505;28;1459;-79
2022/05/14 01:18:10;;;;;;;8.40;6.40;;;;;;;9.13;100.00;101304.28;680125;29;1214;-79
2022/05/14 01:18:35;;;;;;;7.78;6.32;;;;;;;9.11;100.00;101317.31;675680;29;1308;-80
2022/05/14 01:18:57;;;;;;;9.10;6.53;;;;;;;9.13;100.00;101301.66;679891;29;982;-79
2022/05/14 01:19:18;;;;;;;8.50;6.28;;;;;;;9.16;100.00;101292.13;681237;29;1116;-79
2022/05/14 01:19:43;;;;;;;9.00;6.10;;;;;;;9.15;100.00;101313.88;681104;29;4817;-79
2022/05/14 01:20:04;;;;;;;7.28;5.65;;;;;;;9.15;100.00;101300.84;677585;29;1406;-79
2022/05/14 01:20:26;;;;;;;7.10;5.60;;;;;;;9.16;100.00;101289.53;679319;29;1467;-79
2022/05/14 01:21:20;;;;;;;7.77;6.13;;;;;;;9.07;100.00;101298.97;681602;29;1111;-79
2022/05/14 01:21:59;;;;;;;7.90;6.25;;;;;;;9.04;100.00;101310.25;675066;29;1255;-79
2022/05/14 01:22:40;;;;;;;8.52;6.38;;;;;;;9.07;100.00;101285.94;678862;29;4342;-79
2022/05/14 01:26:29;;;;;;;9.27;6.63;;;;;;;8.74;100.00;101289.91;678291;29;1574;-79
2022/05/14 01:26:54;;;;;;;9.05;6.43;;;;;;;8.72;100.00;101294.22;684184;28;1279;-79
2022/05/14 01:27:15;;;;;;;8.73;6.60;;;;;;;8.71;100.00;101293.34;685149;28;1414;-79
2022/05/14 01:27:35;;;;;;;8.50;6.60;;;;;;;8.67;100.00;101301.97;685246;28;1170;-80
2022/05/14 01:27:56;;;;;;;8.90;6.78;;;;;;;8.65;100.00;101294.16;686431;28;1200;-79
2022/05/14 01:28:20;;;;;;;9.32;6.85;;;;;;;8.62;100.00;101308.84;684273;28;4287;-79
2022/05/14 01:28:42;;;;;;;7.60;6.78;;;;;;;8.58;100.00;101296.63;681451;28;1426;-79
2022/05/14 01:29:13;;;;;;;7.88;6.68;;;;;;;8.60;100.00;101290.59;681616;28;1515;-79
2022/05/14 01:29:35;;;;;;;7.97;6.30;;;;;;;8.63;100.00;101301.06;681638;29;1236;-79
2022/05/14 01:30:00;;;;;;;8.45;6.18;;;;;;;8.60;100.00;101294.91;679657;28;1522;-79
2022/05/14 01:30:22;;;;;;;10.15;6.78;;;;;;;8.56;100.00;101308.78;684069;28;1600;-79
2022/05/14 01:30:48;;;;;;;10.95;6.38;;;;;;;8.52;100.00;101300.03;678348;29;1277;-79
2022/05/14 01:31:09;;;;;;;10.35;6.55;;;;;;;8.48;100.00;101301.72;680203;29;932;-79
2022/05/14 01:31:31;;;;;;;10.73;6.88;;;;;;;8.50;100.00;101296.53;681850;28;4364;-79
2022/05/14 01:31:54;;;;;;;9.63;6.80;;;;;;;8.52;100.00;101293.09;685051;28;1305;-79
2022/05/14 01:32:19;;;;;;;9.40;6.55;;;;;;;8.54;100.00;101297.44;683798;28;1628;-80
2022/05/14 01:32:39;;;;;;;10.50;6.93;;;;;;;8.55;100.00;101300.06;683569;28;1541;-79
2022/05/14 01:33:06;;;;;;;7.25;5.90;;;;;;;8.60;100.00;101300.13;682307;28;2034;-79
2022/05/14 01:33:37;;;;;;;8.75;6.13;;;;;;;8.59;100.00;101306.22;684873;28;1419;-79
2022/05/14 01:34:03;;;;;;;9.38;6.32;;;;;;;8.56;100.00;101295.75;684672;28;1192;-79
2022/05/14 01:34:30;;;;;;;8.32;6.63;;;;;;;8.52;100.00;101302.66;679477;28;4482;-79
2022/05/14 01:34:51;;;;;;;8.77;6.72;;;;;;;8.56;100.00;101303.56;680819;29;1248;-79
2022/05/14 01:35:17;;;;;;;7.82;6.00;;;;;;;8.56;100.00;101295.75;681995;29;893;-79
2022/05/14 01:35:40;;;;;;;8.77;6.18;;;;;;;8.60;100.00;101294.91;681877;29;1739;-79
2022/05/14 01:36:05;;;;;;;8.23;6.00;;;;;;;8.65;100.00;101307.19;683426;28;1480;-79
2022/05/14 01:36:25;;;;;;;9.00;6.00;;;;;;;8.63;100.00;101297.59;681765;28;1240;-79
2022/05/14 01:36:46;;;;;;;10.03;6.27;;;;;;;8.64;100.00;101299.31;683304;28;1270;-79
2022/05/14 01:37:10;;;;;;;8.45;6.38;;;;;;;8.62;100.00;101296.69;679340;29;1422;-79
2022/05/14 01:37:32;;;;;;;8.93;6.38;;;;;;;8.62;100.00;101309.72;686417;28;4270;-78
2022/05/14 01:37:53;;;;;;;10.50;6.33;;;;;;;8.60;100.00;101321.88;680722;29;1300;-79
2022/05/14 01:38:14;;;;;;;10.20;6.40;;;;;;;8.59;100.00;101304.47;681611;29;1667;-79
2022/05/14 01:38:35;;;;;;;8.25;5.90;;;;;;;8.61;100.00;101297.56;680163;29;1356;-79
2022/05/14 01:38:56;;;;;;;8.50;5.90;;;;;;;8.65;100.00;101324.53;681682;29;1068;-79
2022/05/14 01:39:20;;;;;;;7.82;6.10;;;;;;;8.67;100.00;101315.00;679324;29;1249;-79
2022/05/14 01:39:41;;;;;;;8.40;6.05;;;;;;;8.59;100.00;101294.03;680345;29;1432;-79
2022/05/14 01:40:02;;;;;;;8.98;6.18;;;;;;;8.52;100.00;101313.94;681490;29;1225;-79
2022/05/14 01:40:23;;;;;;;9.48;6.20;;;;;;;8.50;100.00;101327.78;678928;29;4395;-79
2022/05/14 01:40:44;;;;;;;8.43;6.13;;;;;;;8.48;100.00;101322.56;679270;28;1544;-79
2022/05/14 01:41:04;;;;;;;9.00;6.40;;;;;;;8.55;100.00;101299.22;683102;28;1407;-79
2022/05/14 01:41:25;;;;;;;9.18;6.20;;;;;;;8.57;100.00;101313.13;681743;28;1504;-79
2022/05/14 01:41:46;;;;;;;9.38;6.03;;;;;;;8.57;100.00;101303.59;681696;28;1736;-79
2022/05/14 01:42:08;;;;;;;10.73;6.30;;;;;;;8.54;100.00;101326.13;679013;29;1419;-79
2022/05/14 01:42:29;;;;;;;9.00;6.53;;;;;;;8.54;100.00;101300.06;679943;29;1658;-79
2022/05/14 01:42:50;;;;;;;9.73;6.25;;;;;;;8.54;100.00;101305.28;678071;29;1557;-79
2022/05/14 01:43:11;;;;;;;9.50;6.17;;;;;;;8.55;100.00;101309.63;676591;29;1460;-79
2022/05/14 01:43:33;;;;;;;8.63;6.43;;;;;;;8.55;100.00;101309.63;677043;29;4277;-79
2022/05/14 01:43:53;;;;;;;8.30;6.35;;;;;;;8.56;100.00;101299.22;680714;29;1279;-79
2022/05/14 01:44:14;;;;;;;9.30;6.30;;;;;;;8.54;100.00;101297.44;680537;29;1154;-79
2022/05/14 01:44:35;;;;;;;8.60;6.43;;;;;;;8.54;100.00;101311.34;679802;29;1154;-79
2022/05/14 01:44:55;;;;;;;9.55;6.40;;;;;;;8.56;100.00;101300.97;682625;28;1368;-79
2022/05/14 01:45:16;;;;;;;8.20;6.05;;;;;;;8.60;100.00;101303.63;680566;29;1680;-79
2022/05/14 01:45:37;;;;;;;8.07;6.32;;;;;;;8.61;100.00;101302.78;680109;29;1409;-79
2022/05/14 01:45:59;;;;;;;8.77;6.15;;;;;;;8.62;100.00;101304.50;678551;29;1727;-79
2022/05/14 01:46:19;;;;;;;9.60;5.97;;;;;;;8.62;100.00;101307.13;678369;29;4317;-79
2022/05/14 01:46:40;;;;;;;8.20;5.82;;;;;;;8.63;100.00;101306.28;677926;29;1429;-79
2022/05/14 01:47:02;;;;;;;8.73;6.50;;;;;;;8.59;100.00;101301.00;677151;29;1714;-79
2022/05/14 01:47:23;;;;;;;9.20;6.68;;;;;;;8.55;100.00;101305.28;678158;29;1692;-79
2022/05/14 01:47:44;;;;;;;8.88;6.68;;;;;;;8.56;100.00;101303.56;680800;29;1294;-80
2022/05/14 01:48:05;;;;;;;8.93;6.53;;;;;;;8.54;100.00;101297.44;681305;29;1010;-79
2022/05/14 01:48:25;;;;;;;9.93;6.78;;;;;;;8.52;100.00;101307.84;678858;29;1181;-79
2022/05/14 01:48:48;;;;;;;9.90;6.68;;;;;;;8.54;100.00;101313.09;679888;29;1550;-79
2022/05/14 01:49:09;;;;;;;9.45;6.90;;;;;;;8.56;100.00;101304.44;678456;29;1755;-79
2022/05/14 01:49:29;;;;;;;7.90;6.43;;;;;;;8.58;100.00;101300.09;678392;29;4330;-79
2022/05/14 01:49:50;;;;;;;6.80;5.87;;;;;;;8.60;100.00;101305.34;680761;29;1303;-79
2022/05/14 01:50:11;;;;;;;8.75;6.10;;;;;;;8.58;100.00;101304.47;681495;29;1496;-79
2022/05/14 01:50:31;;;;;;;8.15;6.28;;;;;;;8.59;100.00;101308.81;680368;29;1276;-79
2022/05/14 01:50:51;;;;;;;8.60;6.40;;;;;;;8.61;100.00;101301.88;681595;28;1201;-79
2022/05/14 01:51:13;;;;;;;8.80;6.40;;;;;;;8.60;100.00;101306.22;678787;28;1455;-79
2022/05/14 01:51:34;;;;;;;9.75;6.45;;;;;;;8.63;100.00;101302.78;680272;29;1452;-79
2022/05/14 01:51:56;;;;;;;8.68;5.90;;;;;;;8.62;100.00;101303.66;681155;28;1316;-80
2022/05/14 01:52:17;;;;;;;9.13;6.00;;;;;;;8.61;100.00;101297.56;679754;29;1247;-79
2022/05/14 01:52:37;;;;;;;9.13;6.10;;;;;;;8.63;100.00;101300.19;677032;29;4490;-79
2022/05/14 01:52:58;;;;;;;9.15;6.00;;;;;;;8.63;100.00;101303.66;678274;29;1911;-79
2022/05/14 01:53:19;;;;;;;9.40;6.10;;;;;;;8.62;100.00;101311.47;676039;29;1390;-79
2022/05/14 01:53:39;;;;;;;8.17;6.53;;;;;;;8.60;100.00;101308.84;678204;29;1478;-79
2022/05/14 01:54:04;;;;;;;8.43;6.57;;;;;;;8.60;100.00;101301.03;678022;29;1365;-79
2022/05/14 01:54:25;;;;;;;8.60;6.63;;;;;;;8.62;100.00;101301.03;680481;29;978;-79
2022/05/14 01:54:45;;;;;;;8.50;5.82;;;;;;;8.64;100.00;101307.13;683176;28;1535;-78
2022/05/14 01:55:07;;;;;;;8.63;5.82;;;;;;;8.66;100.00;101302.84;682834;28;1416;-78